GVNP

Praia International Airport

Praia, Cape Verde
METAR GVNP 280000Z 03022KT 9999 SCT015 21/17 Q1017 NOSIG
Observed Flight Rules
May-28 @ 00:00 UTC (60 minutes ago) Visual Flight Rules
Wind Visibility Clouds
30° at 22 knots 10,000+ meters
  • Scattered at 1,500' AGL
Temperatures Readings
Current 21°C / 70°F
Dewpoint 17°C / 63°F
Humidity 78%
Altimeter 30.03" Hg
Pressure 1017 hPa
Elevation 70
METAR GVNP 280000Z 03022KT 9999 SCT015 21/17 Q1017 NOSIG
Observed Flight Rules
May-28 @ 00:00 UTC
(60 minutes ago)
VFR
Wind Visibility
30° at 22 knots 10,000+ meters
Clouds
  • Scattered at 1,500' AGL
Temperature Dewpoint
21°C / 70°F 17°C / 63°F
Humidity Altimeter Pressure
78% 30.03" Hg 1017 hPa